Time;durP1;ratioP1;P1;durP2;ratioP2;P2;SDS_P1;SDS_P2;PMS_P1;PMS_P2;Temp;Humidity;BMP_temperature;BMP_pressure;BME280_temperature;BME280_humidity;BME280_pressure;Samples;Min_cycle;Max_cycle;Signal;HPM_P1;HPM_P2
2021/06/01 00:01:49;;;;;;;15.10;6.63;;;;;;;21.66;39.01;101719.25;5075356;28;20683;-52
2021/06/01 00:04:16;;;;;;;10.50;6.07;;;;;;;21.56;39.58;101720.91;5074321;28;20469;-49
2021/06/01 00:06:44;;;;;;;14.63;5.97;;;;;;;21.57;39.45;101723.56;5074843;28;20540;-51
2021/06/01 00:09:15;;;;;;;10.10;6.07;;;;;;;21.51;39.73;101715.63;5075572;28;20477;-48
2021/06/01 00:11:42;;;;;;;10.53;6.20;;;;;;;21.54;39.53;101705.13;5094991;28;20476;-54
2021/06/01 00:14:10;;;;;;;8.80;5.53;;;;;;;21.53;39.61;101710.38;5095504;28;20487;-51
2021/06/01 00:16:37;;;;;;;11.07;6.43;;;;;;;21.48;40.08;101712.06;5093814;28;20489;-51
2021/06/01 00:19:07;;;;;;;12.23;6.50;;;;;;;21.27;40.92;101703.97;5095307;28;20483;-53
2021/06/01 00:21:34;;;;;;;11.23;5.80;;;;;;;21.31;40.64;101702.25;5094048;28;20488;-52
2021/06/01 00:24:02;;;;;;;9.73;5.83;;;;;;;21.12;40.92;101706.41;5095206;28;20480;-47
2021/06/01 00:26:30;;;;;;;9.03;5.57;;;;;;;21.15;41.38;101702.06;5093557;28;20477;-50
2021/06/01 00:28:57;;;;;;;14.40;7.70;;;;;;;20.88;42.39;101698.19;5095232;28;20569;-51
2021/06/01 00:31:24;;;;;;;12.60;6.30;;;;;;;20.93;42.14;101706.16;5094044;28;20473;-51
2021/06/01 00:33:52;;;;;;;11.93;6.60;;;;;;;20.68;42.35;101702.25;5095157;28;20451;-53
2021/06/01 00:36:19;;;;;;;12.30;6.50;;;;;;;20.60;43.21;101692.53;5093456;28;20925;-50
2021/06/01 00:38:46;;;;;;;15.43;6.50;;;;;;;20.44;43.51;101687.91;5095450;28;20476;-51
2021/06/01 00:41:14;;;;;;;19.10;10.20;;;;;;;20.45;43.52;101690.56;5094006;28;20811;-49
2021/06/01 00:43:42;;;;;;;11.90;8.17;;;;;;;20.43;43.95;101692.28;5095419;28;20531;-53
2021/06/01 00:46:09;;;;;;;24.20;14.40;;;;;;;20.32;45.20;101699.09;5094534;28;20484;-50
2021/06/01 00:48:36;;;;;;;19.67;10.40;;;;;;;20.60;44.28;101694.28;5099270;28;20496;-52
2021/06/01 00:51:04;;;;;;;11.20;6.93;;;;;;;20.61;43.47;101696.91;5097946;28;20476;-48
2021/06/01 00:53:31;;;;;;;12.50;7.00;;;;;;;20.54;43.63;101695.06;5099194;28;20766;-50
2021/06/01 00:55:59;;;;;;;12.30;7.00;;;;;;;20.36;44.18;101701.78;5097364;28;20475;-52
2021/06/01 00:58:26;;;;;;;12.20;7.07;;;;;;;20.16;45.20;101696.25;5098827;28;20496;-50
2021/06/01 01:01:17;;;;;;;19.00;9.17;;;;;;;19.95;46.20;101683.63;5096439;28;20481;-52
2021/06/01 01:03:45;;;;;;;12.83;7.90;;;;;;;19.63;47.27;101697.00;5099010;28;20534;-51
2021/06/01 01:06:19;;;;;;;13.87;7.37;;;;;;;19.41;48.31;101697.47;5097254;28;20486;-51
2021/06/01 01:08:50;;;;;;;11.77;6.83;;;;;;;19.59;47.53;101695.16;5098274;28;20487;-48
2021/06/01 01:11:20;;;;;;;13.43;6.93;;;;;;;19.39;47.65;101700.91;5097381;28;20920;-46
2021/06/01 01:13:49;;;;;;;15.43;7.20;;;;;;;19.47;46.39;101701.06;5099154;28;20457;-48
2021/06/01 01:16:19;;;;;;;11.70;6.90;;;;;;;19.56;45.96;101706.47;5096422;28;20478;-48
2021/06/01 01:18:51;;;;;;;12.03;6.93;;;;;;;19.59;45.77;101700.41;5098711;28;20483;-48
2021/06/01 01:21:21;;;;;;;11.60;6.83;;;;;;;19.60;45.91;101702.16;5097316;28;20789;-50
2021/06/01 01:23:53;;;;;;;11.87;7.00;;;;;;;19.36;46.47;101703.44;5098281;28;20491;-53
2021/06/01 01:26:27;;;;;;;16.10;6.60;;;;;;;19.16;47.49;101711.75;5096722;28;20488;-47
2021/06/01 01:29:00;;;;;;;14.20;8.10;;;;;;;19.54;46.98;101693.34;5098466;28;20480;-51
2021/06/01 01:31:34;;;;;;;13.90;7.80;;;;;;;19.54;46.88;101695.94;5094509;28;20481;-49
2021/06/01 01:34:04;;;;;;;15.03;7.70;;;;;;;19.43;47.45;101697.47;5098542;28;20723;-49
2021/06/01 01:36:33;;;;;;;16.03;8.70;;;;;;;19.73;46.69;101695.44;5096573;28;20499;-46
2021/06/01 01:39:00;;;;;;;14.90;8.90;;;;;;;19.83;46.88;101695.63;5098327;28;20476;-51
2021/06/01 01:41:27;;;;;;;12.00;7.93;;;;;;;19.94;46.16;101693.19;5095295;28;20477;-49
2021/06/01 01:43:57;;;;;;;15.93;8.70;;;;;;;19.73;46.46;101696.31;5098128;28;20489;-48
2021/06/01 01:46:32;;;;;;;17.87;7.90;;;;;;;19.58;46.58;101694.28;5096379;28;20481;-50
2021/06/01 01:49:02;;;;;;;13.53;8.43;;;;;;;19.56;46.85;101690.75;5098148;28;20572;-48
2021/06/01 01:51:34;;;;;;;16.00;7.20;;;;;;;19.28;47.51;101701.56;5094824;28;20481;-49
2021/06/01 01:54:03;;;;;;;13.10;7.63;;;;;;;19.36;47.51;101695.59;5097976;28;20818;-53
2021/06/01 01:56:34;;;;;;;14.53;8.53;;;;;;;19.28;47.78;101693.69;5096184;28;20484;-49
2021/06/01 01:59:02;;;;;;;16.50;8.97;;;;;;;19.33;48.01;101692.94;5098061;28;20915;-51
2021/06/01 02:01:30;;;;;;;13.80;7.80;;;;;;;19.12;47.97;101684.66;5093469;28;20474;-49
2021/06/01 02:03:58;;;;;;;12.67;8.13;;;;;;;19.15;48.47;101678.59;5097669;28;20519;-49
2021/06/01 02:06:26;;;;;;;14.03;8.20;;;;;;;18.98;47.85;101686.94;5094052;28;20491;-51
2021/06/01 02:08:54;;;;;;;12.93;7.77;;;;;;;18.83;48.08;101684.00;5097551;28;20481;-47
2021/06/01 02:11:21;;;;;;;12.43;8.50;;;;;;;18.65;48.78;101677.50;5096367;28;20475;-47
2021/06/01 02:13:51;;;;;;;14.13;8.20;;;;;;;18.32;49.67;101679.34;5097762;28;20475;-51
2021/06/01 02:16:18;;;;;;;13.80;8.40;;;;;;;18.31;49.64;101677.59;5095850;28;20548;-51
2021/06/01 02:18:46;;;;;;;12.60;8.00;;;;;;;18.33;49.57;101672.41;5097501;28;20860;-51
2021/06/01 02:21:21;;;;;;;11.90;7.53;;;;;;;18.43;49.00;101678.72;5096174;28;20480;-50
2021/06/01 02:23:54;;;;;;;14.13;8.60;;;;;;;18.55;49.25;101686.00;5097140;28;20501;-49
2021/06/01 02:26:36;;;;;;;14.87;8.90;;;;;;;18.84;48.22;101684.03;5095020;28;20472;-49
2021/06/01 02:29:06;;;;;;;14.90;9.00;;;;;;;18.93;48.01;101687.69;5098434;28;20491;-48
2021/06/01 02:31:37;;;;;;;50.00;29.43;;;;;;;18.65;48.02;101687.97;5096126;28;20845;-53
2021/06/01 02:34:06;;;;;;;154.67;80.13;;;;;;;18.64;48.53;101683.59;5097201;28;20905;-51
2021/06/01 02:36:34;;;;;;;20.93;12.20;;;;;;;18.48;48.53;101685.84;5095300;28;20478;-50
2021/06/01 02:39:04;;;;;;;15.53;9.53;;;;;;;18.43;48.20;101676.13;5097159;28;20502;-49
2021/06/01 02:41:31;;;;;;;13.37;7.60;;;;;;;18.03;49.68;101678.59;5095863;28;20469;-50
2021/06/01 02:43:59;;;;;;;12.30;8.10;;;;;;;17.77;50.54;101684.03;5096982;28;20483;-48
2021/06/01 02:46:26;;;;;;;13.20;8.37;;;;;;;17.91;50.19;101682.69;5095137;28;20479;-52
2021/06/01 02:48:54;;;;;;;15.13;8.33;;;;;;;17.96;50.38;101672.34;5096811;28;20527;-48
2021/06/01 02:51:21;;;;;;;14.03;8.33;;;;;;;17.87;50.70;101669.47;5095593;28;20471;-50
2021/06/01 02:53:51;;;;;;;15.80;8.90;;;;;;;17.63;51.35;101676.72;5097002;28;20764;-53
2021/06/01 02:56:20;;;;;;;15.27;8.93;;;;;;;18.14;50.20;101674.56;5097731;28;20933;-50
2021/06/01 02:58:50;;;;;;;13.87;8.27;;;;;;;18.33;49.27;101669.78;5107220;28;21032;-50
2021/06/01 03:01:18;;;;;;;20.17;11.23;;;;;;;18.55;49.14;101671.19;5104877;28;20978;-49
2021/06/01 03:03:47;;;;;;;17.97;11.27;;;;;;;18.59;48.49;101666.91;5104741;28;20478;-48
2021/06/01 03:06:15;;;;;;;20.17;12.90;;;;;;;18.54;48.48;101668.53;5101613;28;20752;-48
2021/06/01 03:08:42;;;;;;;43.00;23.17;;;;;;;18.56;49.51;101666.84;5101337;28;20481;-46
2021/06/01 03:11:10;;;;;;;19.77;9.13;;;;;;;18.41;48.87;101673.47;5095341;28;20482;-48
2021/06/01 03:13:39;;;;;;;26.90;13.10;;;;;;;18.68;48.91;101671.47;5096402;28;20457;-50
2021/06/01 03:16:06;;;;;;;19.60;10.27;;;;;;;18.55;48.75;101668.56;5098895;28;20770;-45
2021/06/01 03:18:33;;;;;;;17.00;9.67;;;;;;;18.29;49.32;101665.34;5092649;28;20486;-50
2021/06/01 03:21:00;;;;;;;16.53;9.83;;;;;;;18.06;49.80;101665.66;5094868;28;20473;-46
2021/06/01 03:23:27;;;;;;;16.00;9.37;;;;;;;18.34;48.97;101663.72;5096068;28;20478;-51
2021/06/01 03:25:54;;;;;;;28.30;9.90;;;;;;;17.81;50.37;101670.22;5094507;28;20482;-46
2021/06/01 03:28:22;;;;;;;13.80;7.90;;;;;;;17.71;50.91;101661.25;5095744;28;20492;-49
2021/06/01 03:30:51;;;;;;;17.63;10.60;;;;;;;17.94;50.16;101656.63;5094686;28;20481;-52
2021/06/01 03:33:18;;;;;;;16.40;9.50;;;;;;;18.10;49.72;101661.41;5096198;28;20458;-50
2021/06/01 03:35:45;;;;;;;60.40;31.80;;;;;;;17.98;51.22;101654.09;5092221;28;20474;-51
2021/06/01 03:38:13;;;;;;;40.80;21.73;;;;;;;17.88;51.18;101646.03;5095872;28;20480;-48
2021/06/01 03:40:40;;;;;;;22.63;10.93;;;;;;;17.89;50.39;101655.63;5094323;28;20489;-46
2021/06/01 03:43:09;;;;;;;25.40;16.23;;;;;;;17.99;50.97;101646.31;5095985;28;20457;-48
2021/06/01 03:45:36;;;;;;;28.70;16.93;;;;;;;18.33;49.80;101656.72;5093981;28;20488;-48
2021/06/01 03:48:05;;;;;;;24.87;13.90;;;;;;;18.43;48.92;101650.00;5095772;28;20479;-49
2021/06/01 03:50:33;;;;;;;16.40;10.03;;;;;;;18.43;49.45;101652.59;5094194;28;20595;-49
2021/06/01 03:53:01;;;;;;;21.30;12.20;;;;;;;17.99;51.89;101653.28;5095675;28;20464;-48
2021/06/01 03:55:28;;;;;;;14.27;8.43;;;;;;;17.60;52.48;101655.78;5094370;28;20484;-53
2021/06/01 03:57:55;;;;;;;21.07;13.03;;;;;;;17.65;52.41;101653.28;5095596;28;20462;-48
2021/06/01 04:00:24;;;;;;;23.27;12.63;;;;;;;18.13;51.47;101651.03;5094469;28;20474;-51
2021/06/01 04:02:51;;;;;;;18.40;10.63;;;;;;;18.32;50.87;101653.22;5095614;28;20454;-51
2021/06/01 04:05:24;;;;;;;18.33;10.73;;;;;;;18.50;50.17;101644.06;5093667;28;20917;-51
2021/06/01 04:07:51;;;;;;;14.43;8.93;;;;;;;18.52;49.51;101647.63;5095468;28;20454;-48
2021/06/01 04:10:19;;;;;;;24.70;13.20;;;;;;;18.72;49.65;101641.94;5094074;28;20481;-49
2021/06/01 04:12:46;;;;;;;21.03;11.57;;;;;;;18.81;48.86;101642.13;5095525;28;20481;-53
2021/06/01 04:15:14;;;;;;;15.20;9.13;;;;;;;18.54;49.58;101647.63;5094264;28;20467;-47
2021/06/01 04:17:41;;;;;;;22.90;12.90;;;;;;;18.74;49.61;101643.75;5095020;28;20876;-54
2021/06/01 04:20:09;;;;;;;29.10;15.40;;;;;;;18.53;50.10;101644.16;5094050;28;20473;-52
2021/06/01 04:22:37;;;;;;;21.03;13.10;;;;;;;18.62;49.85;101640.88;5098739;28;20469;-50
2021/06/01 04:25:06;;;;;;;21.30;14.23;;;;;;;18.74;49.78;101651.59;5098090;28;20482;-51
2021/06/01 04:27:33;;;;;;;18.70;10.23;;;;;;;18.82;49.21;101650.88;5099347;28;20460;-51
2021/06/01 04:30:00;;;;;;;24.93;13.30;;;;;;;18.51;50.46;101650.19;5097965;28;20490;-52
2021/06/01 04:32:28;;;;;;;18.13;10.90;;;;;;;18.66;49.77;101653.13;5099345;28;20462;-50
2021/06/01 04:34:55;;;;;;;19.50;11.77;;;;;;;19.17;48.74;101645.50;5097914;28;21213;-51
2021/06/01 04:37:22;;;;;;;19.90;11.93;;;;;;;19.41;48.28;101639.00;5099018;28;20462;-49
2021/06/01 04:39:50;;;;;;;21.50;13.17;;;;;;;19.24;48.18;101646.53;5097462;28;20586;-49
2021/06/01 04:42:18;;;;;;;14.83;9.20;;;;;;;19.28;48.02;101638.78;5099203;28;20464;-50
2021/06/01 04:44:45;;;;;;;18.40;10.17;;;;;;;19.49;47.43;101639.16;5097819;28;20533;-50
2021/06/01 04:47:14;;;;;;;19.27;11.80;;;;;;;19.39;48.18;101635.50;5098949;28;20467;-47
2021/06/01 04:49:41;;;;;;;18.63;11.20;;;;;;;19.48;48.31;101638.25;5097643;28;20475;-49
2021/06/01 04:52:08;;;;;;;17.00;10.43;;;;;;;19.68;47.06;101636.03;5099038;28;20915;-48
2021/06/01 04:54:36;;;;;;;18.23;11.07;;;;;;;19.89;47.18;101637.25;5097562;28;20465;-49
2021/06/01 04:57:05;;;;;;;18.90;10.90;;;;;;;19.77;47.51;101643.16;5098815;28;20463;-48
2021/06/01 04:59:34;;;;;;;16.20;10.40;;;;;;;19.78;47.46;101642.31;5097390;28;20490;-51
2021/06/01 05:02:01;;;;;;;14.50;8.63;;;;;;;19.90;47.49;101643.38;5098707;28;20478;-50
2021/06/01 05:04:28;;;;;;;13.83;8.57;;;;;;;19.62;47.79;101648.09;5097574;28;21006;-48
2021/06/01 05:06:57;;;;;;;15.47;9.70;;;;;;;19.50;48.49;101649.66;5098496;28;20777;-49
2021/06/01 05:09:24;;;;;;;18.17;10.70;;;;;;;19.53;48.38;101654.94;5097708;28;20480;-48
2021/06/01 05:11:52;;;;;;;19.20;10.40;;;;;;;19.61;48.58;101646.34;5098475;28;20480;-48
2021/06/01 05:14:20;;;;;;;18.10;11.63;;;;;;;19.59;49.03;101654.19;5097312;28;20543;-50
2021/06/01 05:16:47;;;;;;;17.50;10.10;;;;;;;19.51;49.62;101654.03;5098076;28;20503;-49
2021/06/01 05:19:15;;;;;;;18.90;10.40;;;;;;;19.70;49.44;101643.91;5097593;28;20477;-52
2021/06/01 05:21:42;;;;;;;18.90;9.50;;;;;;;19.86;48.77;101652.91;5098342;28;20951;-50
2021/06/01 05:24:10;;;;;;;17.07;10.40;;;;;;;19.98;48.48;101646.16;5098380;28;20855;-53
2021/06/01 05:26:37;;;;;;;23.23;13.40;;;;;;;19.84;49.10;101646.75;5096489;28;21019;-49
2021/06/01 05:29:04;;;;;;;19.70;10.37;;;;;;;19.86;48.93;101654.63;5097949;28;20482;-49
2021/06/01 05:31:42;;;;;;;21.20;12.70;;;;;;;20.06;49.02;101639.31;5096526;28;20478;-48
2021/06/01 05:34:11;;;;;;;21.00;12.70;;;;;;;20.49;48.03;101646.94;5098445;28;20861;-49
2021/06/01 05:36:38;;;;;;;29.83;16.20;;;;;;;20.45;48.38;101642.53;5096048;28;20761;-48
2021/06/01 05:39:08;;;;;;;64.97;32.03;;;;;;;20.29;48.94;101641.38;5098112;28;20489;-52
2021/06/01 05:41:35;;;;;;;90.83;43.50;;;;;;;20.40;48.56;101639.81;5096874;28;20502;-49
2021/06/01 05:44:02;;;;;;;41.77;20.67;;;;;;;20.59;47.38;101640.09;5098298;28;20759;-50
2021/06/01 05:46:29;;;;;;;27.33;14.30;;;;;;;21.05;46.58;101639.84;5096060;28;20492;-54
2021/06/01 05:48:58;;;;;;;18.73;10.07;;;;;;;21.08;46.00;101636.38;5097973;28;20792;-52
2021/06/01 05:51:30;;;;;;;17.47;9.93;;;;;;;21.20;45.60;101638.25;5096518;28;20488;-49
2021/06/01 05:53:57;;;;;;;20.50;9.47;;;;;;;21.36;45.37;101634.06;5097767;28;20905;-52
2021/06/01 05:56:25;;;;;;;15.80;9.47;;;;;;;21.51;44.80;101638.59;5096019;28;20484;-52
2021/06/01 05:58:52;;;;;;;16.37;10.07;;;;;;;21.53;45.34;101634.25;5097219;28;21303;-51
2021/06/01 06:01:19;;;;;;;18.53;10.13;;;;;;;21.83;44.88;101635.44;5096167;28;20476;-49
2021/06/01 06:03:46;;;;;;;18.20;9.80;;;;;;;21.93;44.01;101639.91;5097563;28;20466;-51
2021/06/01 06:06:15;;;;;;;17.30;8.80;;;;;;;22.19;43.76;101633.97;5093897;28;20501;-54
2021/06/01 06:08:43;;;;;;;17.03;8.80;;;;;;;22.39;42.95;101646.38;5097105;28;20974;-47
2021/06/01 06:11:10;;;;;;;15.80;8.63;;;;;;;22.51;42.37;101637.69;5096047;28;21046;-52
2021/06/01 06:13:37;;;;;;;11.97;7.03;;;;;;;22.46;41.44;101644.66;5097646;28;20466;-51
2021/06/01 06:16:05;;;;;;;13.00;8.33;;;;;;;22.72;42.12;101651.84;5095845;28;20478;-49
2021/06/01 06:18:37;;;;;;;13.30;8.33;;;;;;;22.75;41.98;101655.38;5097264;28;20478;-50
2021/06/01 06:21:06;;;;;;;18.37;8.80;;;;;;;23.04;40.84;101654.66;5096109;28;20560;-52
2021/06/01 06:23:39;;;;;;;14.70;7.67;;;;;;;23.14;39.55;101655.56;5097477;28;20771;-50
2021/06/01 06:26:07;;;;;;;12.30;7.80;;;;;;;23.30;39.41;101653.88;5079947;28;20791;-49
2021/06/01 06:28:34;;;;;;;8.90;5.33;;;;;;;23.15;37.03;101648.53;5076691;28;20482;-50
2021/06/01 06:31:01;;;;;;;10.97;5.77;;;;;;;23.33;36.35;101651.25;5075388;28;20513;-49
2021/06/01 06:33:29;;;;;;;9.67;5.93;;;;;;;23.25;35.29;101645.06;5076920;28;20460;-51
2021/06/01 06:35:56;;;;;;;14.67;7.90;;;;;;;23.26;34.99;101638.91;5075230;28;20484;-51
2021/06/01 06:38:23;;;;;;;13.53;7.20;;;;;;;23.48;36.11;101646.00;5076805;28;20809;-50
2021/06/01 06:41:00;;;;;;;11.23;6.50;;;;;;;23.06;34.24;101655.50;5075010;28;20479;-52
2021/06/01 06:43:27;;;;;;;6.40;3.20;;;;;;;23.33;30.71;101645.97;5075957;28;20469;-50
2021/06/01 06:45:55;;;;;;;7.13;3.80;;;;;;;23.66;32.71;101640.78;5074869;28;20483;-46
2021/06/01 06:48:22;;;;;;;7.70;3.47;;;;;;;23.52;28.98;101638.13;5076553;28;20480;-47
2021/06/01 06:50:49;;;;;;;5.13;2.80;;;;;;;23.69;28.69;101645.16;5075343;28;20492;-48
2021/06/01 06:53:16;;;;;;;7.90;2.80;;;;;;;23.61;26.85;101645.16;5076758;28;20461;-51
2021/06/01 06:55:43;;;;;;;14.20;7.73;;;;;;;24.02;29.09;101638.16;5074925;28;20485;-48
2021/06/01 06:58:12;;;;;;;7.50;3.80;;;;;;;23.80;29.19;101640.78;5076258;28;20481;-47
2021/06/01 07:00:39;;;;;;;18.10;10.40;;;;;;;23.95;29.70;101639.03;5074756;28;20492;-48
2021/06/01 07:03:06;;;;;;;6.40;3.17;;;;;;;24.25;28.60;101635.50;5076387;28;20877;-46
2021/06/01 07:05:33;;;;;;;9.97;3.57;;;;;;;24.50;28.70;101639.88;5074556;28;20868;-47
2021/06/01 07:08:00;;;;;;;17.77;6.90;;;;;;;24.63;28.37;101635.44;5076216;28;20467;-48
2021/06/01 07:10:27;;;;;;;11.17;4.87;;;;;;;24.62;29.19;101646.88;5094573;28;20489;-51
2021/06/01 07:13:00;;;;;;;14.60;6.80;;;;;;;24.67;29.76;101631.91;5095913;28;20463;-51
2021/06/01 07:15:37;;;;;;;24.10;12.13;;;;;;;24.82;27.95;101633.66;5094594;28;20475;-47
2021/06/01 07:18:05;;;;;;;11.80;4.87;;;;;;;24.97;30.88;101635.31;5096293;28;20859;-52
2021/06/01 07:20:33;;;;;;;20.73;11.27;;;;;;;24.86;29.93;101640.66;5095091;28;20492;-55
2021/06/01 07:23:01;;;;;;;12.30;7.23;;;;;;;24.92;28.16;101637.97;5096048;28;20468;-50
2021/06/01 07:25:28;;;;;;;8.27;2.87;;;;;;;24.95;26.44;101634.44;5083944;28;20928;-49
2021/06/01 07:27:55;;;;;;;8.70;4.57;;;;;;;24.80;28.03;101635.34;5075632;28;20823;-49
2021/06/01 07:30:23;;;;;;;6.33;3.00;;;;;;;24.60;27.10;101638.94;5074367;28;20952;-50
2021/06/01 07:32:51;;;;;;;20.73;12.30;;;;;;;24.79;28.08;101630.97;5075468;28;20472;-53
2021/06/01 07:35:21;;;;;;;13.73;7.20;;;;;;;25.17;28.00;101637.00;5071845;28;20932;-52
2021/06/01 07:37:48;;;;;;;20.93;10.27;;;;;;;25.00;28.11;101634.44;5075491;28;20469;-51
2021/06/01 07:40:16;;;;;;;7.60;3.83;;;;;;;25.16;28.94;101629.94;5074269;28;20487;-49
2021/06/01 07:42:44;;;;;;;9.97;3.80;;;;;;;25.17;28.12;101629.94;5075561;28;20520;-53
2021/06/01 07:45:13;;;;;;;9.90;5.07;;;;;;;24.93;30.00;101629.16;5074443;28;20535;-50
2021/06/01 07:47:40;;;;;;;9.53;5.00;;;;;;;25.05;28.91;101632.66;5075456;28;20486;-50
2021/06/01 07:50:10;;;;;;;7.67;3.10;;;;;;;25.15;26.86;101634.38;5074491;28;20482;-50
2021/06/01 07:52:37;;;;;;;7.63;3.57;;;;;;;25.41;27.70;101630.69;5075265;28;20454;-46
2021/06/01 07:55:06;;;;;;;8.03;4.10;;;;;;;25.65;27.34;101628.78;5074281;28;20475;-48
2021/06/01 07:57:36;;;;;;;15.13;9.00;;;;;;;25.68;29.53;101620.84;5075390;28;20541;-50
2021/06/01 08:00:06;;;;;;;7.53;3.90;;;;;;;25.88;28.83;101619.78;5074224;28;20482;-53
2021/06/01 08:02:33;;;;;;;11.47;4.43;;;;;;;25.63;28.88;101621.75;5075260;28;20457;-51
2021/06/01 08:05:00;;;;;;;9.53;3.50;;;;;;;25.54;28.97;101620.06;5074287;28;20489;-49
2021/06/01 08:07:34;;;;;;;5.30;3.00;;;;;;;25.85;29.46;101625.97;5074858;28;20551;-49
2021/06/01 08:10:01;;;;;;;11.53;4.53;;;;;;;26.08;29.63;101626.66;5074123;28;20865;-49
2021/06/01 08:12:28;;;;;;;16.27;9.70;;;;;;;25.98;28.86;101617.94;5075487;28;20463;-51
2021/06/01 08:14:57;;;;;;;8.03;3.77;;;;;;;25.58;28.79;101621.81;5074015;28;20494;-53
2021/06/01 08:17:25;;;;;;;6.17;2.80;;;;;;;25.48;29.22;101620.97;5075126;28;20552;-48
2021/06/01 08:19:54;;;;;;;8.50;3.40;;;;;;;25.86;28.80;101625.09;5070601;28;20481;-54
2021/06/01 08:22:31;;;;;;;8.10;3.73;;;;;;;26.01;28.41;101618.78;5075284;28;20462;-49
2021/06/01 08:24:59;;;;;;;10.87;5.07;;;;;;;25.85;30.15;101620.69;5079594;28;20491;-51
2021/06/01 08:27:28;;;;;;;7.17;3.27;;;;;;;25.48;28.85;101623.59;5095038;28;20458;-48
2021/06/01 08:29:56;;;;;;;7.30;2.70;;;;;;;25.78;29.23;101610.19;5093823;28;20924;-48
2021/06/01 08:32:24;;;;;;;27.97;8.67;;;;;;;25.56;29.14;101607.72;5095147;28;20456;-49
2021/06/01 08:34:51;;;;;;;11.67;3.70;;;;;;;25.99;28.54;101617.94;5093778;28;20481;-53
2021/06/01 08:37:18;;;;;;;12.27;4.97;;;;;;;26.20;28.16;101610.66;5094876;28;20468;-49
2021/06/01 08:39:45;;;;;;;7.13;3.60;;;;;;;25.84;29.82;101607.50;5094006;28;20478;-55
2021/06/01 08:42:16;;;;;;;9.03;4.70;;;;;;;25.96;29.11;101607.41;5095197;28;20462;-49
2021/06/01 08:44:43;;;;;;;7.83;2.93;;;;;;;25.90;30.15;101607.44;5093568;28;20474;-49
2021/06/01 08:47:10;;;;;;;13.37;6.43;;;;;;;25.94;28.88;101608.28;5094632;28;20485;-50
2021/06/01 08:49:37;;;;;;;22.60;10.13;;;;;;;25.80;30.14;101608.41;5094091;28;20466;-53
2021/06/01 08:52:05;;;;;;;8.33;4.33;;;;;;;26.04;29.50;101603.78;5095123;28;20466;-54
2021/06/01 08:54:33;;;;;;;8.90;3.73;;;;;;;26.21;29.97;101601.88;5104162;28;20472;-51
2021/06/01 08:57:00;;;;;;;23.67;13.60;;;;;;;26.02;30.24;101602.06;5115031;28;20449;-48
2021/06/01 08:59:28;;;;;;;15.23;5.60;;;;;;;26.37;28.51;101604.38;5114197;28;20568;-54
2021/06/01 09:01:55;;;;;;;27.03;7.47;;;;;;;26.43;29.19;101599.00;5115184;28;20457;-51
2021/06/01 09:04:22;;;;;;;56.50;16.60;;;;;;;26.61;28.70;101600.53;5110359;28;20541;-52
2021/06/01 09:06:53;;;;;;;13.20;5.07;;;;;;;26.15;29.97;101596.63;5094863;28;20489;-51
2021/06/01 09:09:34;;;;;;;11.77;5.03;;;;;;;26.68;30.50;101593.41;5097209;28;20477;-50
2021/06/01 09:12:10;;;;;;;12.40;4.77;;;;;;;26.74;29.34;101590.69;5098627;28;20472;-54
2021/06/01 09:15:05;;;;;;;9.10;4.53;;;;;;;26.65;29.57;101586.38;5097243;28;20469;-54
2021/06/01 09:23:15;;;;;;;16.50;9.13;;;;;;;27.62;26.70;101585.94;5098561;28;20453;-58
2021/06/01 09:25:45;;;;;;;7.70;3.60;;;;;;;27.52;27.58;101579.00;5096822;28;20486;-53
2021/06/01 09:28:13;;;;;;;7.70;4.33;;;;;;;27.23;27.91;101577.69;5098371;28;20482;-52
2021/06/01 09:30:43;;;;;;;11.43;6.17;;;;;;;27.32;27.38;101568.75;5108100;28;20564;-50
2021/06/01 09:33:26;;;;;;;10.80;4.87;;;;;;;27.65;27.69;101565.56;5119005;28;20453;-53
2021/06/01 09:35:54;;;;;;;10.43;5.90;;;;;;;27.29;28.89;101571.41;5117108;28;20477;-55
2021/06/01 09:38:23;;;;;;;19.07;7.67;;;;;;;27.46;28.05;101568.50;5118281;28;20488;-51
2021/06/01 09:41:03;;;;;;;9.17;4.93;;;;;;;27.52;29.33;101562.25;5108603;28;20473;-51
2021/06/01 09:43:30;;;;;;;7.77;4.70;;;;;;;26.95;29.77;101559.56;5097988;28;20458;-52
2021/06/01 09:45:58;;;;;;;11.30;5.63;;;;;;;27.42;29.18;101558.88;5096586;28;20488;-53
2021/06/01 09:48:26;;;;;;;11.10;6.00;;;;;;;27.76;28.98;101556.56;5098005;28;20523;-53
2021/06/01 09:50:56;;;;;;;14.90;5.63;;;;;;;27.59;28.89;101556.81;5096487;28;20492;-52
2021/06/01 09:53:26;;;;;;;7.43;4.40;;;;;;;28.06;27.74;101558.66;5097740;28;20462;-51
2021/06/01 09:55:54;;;;;;;9.80;5.20;;;;;;;27.89;28.97;101557.19;5096168;28;20480;-53
2021/06/01 09:58:25;;;;;;;9.50;5.93;;;;;;;28.33;27.89;101551.06;5097871;28;20477;-53
2021/06/01 10:00:53;;;;;;;22.23;12.77;;;;;;;27.84;29.27;101553.75;5096218;28;20488;-53
2021/06/01 10:03:23;;;;;;;19.97;12.00;;;;;;;28.62;28.54;101551.38;5097909;28;20457;-55
2021/06/01 10:05:53;;;;;;;11.30;4.77;;;;;;;27.88;28.88;101546.59;5096156;28;20955;-53
2021/06/01 10:08:23;;;;;;;10.70;6.37;;;;;;;27.83;30.14;101549.34;5097518;28;20478;-47
2021/06/01 10:10:52;;;;;;;12.20;6.90;;;;;;;28.43;28.19;101546.44;5096176;28;20940;-54
2021/06/01 10:13:20;;;;;;;10.60;6.30;;;;;;;27.85;30.35;101552.88;5097650;28;20461;-54
2021/06/01 10:15:49;;;;;;;16.60;5.30;;;;;;;28.57;27.99;101551.47;5095963;28;20484;-56
2021/06/01 10:18:18;;;;;;;10.80;5.63;;;;;;;28.48;28.29;101549.00;5096434;28;20500;-55
2021/06/01 10:20:48;;;;;;;8.40;5.37;;;;;;;28.33;28.58;101537.81;5095486;28;20481;-51
2021/06/01 10:23:20;;;;;;;11.13;4.50;;;;;;;28.37;30.48;101543.94;5097424;28;20520;-52
2021/06/01 10:25:47;;;;;;;10.77;7.17;;;;;;;28.41;29.51;101541.16;5095675;28;20520;-54
2021/06/01 10:28:23;;;;;;;10.40;5.20;;;;;;;28.88;28.83;101536.66;5097154;28;20480;-51
2021/06/01 10:30:50;;;;;;;17.13;6.03;;;;;;;28.38;28.39;101540.38;5096178;28;20920;-54
2021/06/01 10:33:19;;;;;;;12.50;5.90;;;;;;;28.26;29.16;101530.88;5097158;28;20552;-55
2021/06/01 10:36:00;;;;;;;10.60;6.20;;;;;;;28.90;27.79;101526.91;5095566;28;20549;-54
2021/06/01 10:50:07;;;;;;;12.03;6.90;;;;;;;28.75;28.51;101522.78;5095014;28;20470;-48
2021/06/01 10:52:35;;;;;;;30.23;9.60;;;;;;;29.18;27.76;101516.50;5096595;28;20456;-53
2021/06/01 10:55:08;;;;;;;10.57;5.33;;;;;;;29.28;27.53;101514.47;5095399;28;20481;-55
2021/06/01 10:57:56;;;;;;;9.50;5.03;;;;;;;28.99;28.71;101513.41;5056081;28;20514;-50
2021/06/01 11:03:12;;;;;;;14.50;5.67;;;;;;;28.61;27.59;101513.31;5056590;28;20513;-53
2021/06/01 11:06:03;;;;;;;9.47;4.57;;;;;;;27.96;30.19;101514.66;5062230;28;20536;-58
2021/06/01 11:08:40;;;;;;;14.53;8.03;;;;;;;28.32;28.80;101512.19;5073444;28;20561;-50
2021/06/01 11:11:31;;;;;;;10.03;5.33;;;;;;;28.53;28.96;101520.59;5066743;28;20486;-57
2021/06/01 11:14:00;;;;;;;11.40;5.77;;;;;;;29.00;27.94;101516.94;5072887;28;20458;-54
2021/06/01 11:16:54;;;;;;;18.83;7.97;;;;;;;28.93;28.19;101505.56;5071919;28;20925;-48
2021/06/01 11:19:24;;;;;;;17.03;6.70;;;;;;;28.58;29.57;101508.09;5063912;28;20482;-50
2021/06/01 11:21:58;;;;;;;8.37;5.43;;;;;;;29.10;28.25;101502.50;5073791;28;20475;-58
2021/06/01 11:24:50;;;;;;;10.20;5.60;;;;;;;28.94;29.09;101499.34;5071088;28;20467;-53
2021/06/01 11:33:23;;;;;;;10.47;6.50;;;;;;;29.09;27.91;101498.13;5072655;28;20505;-50
2021/06/01 11:35:59;;;;;;;16.00;7.33;;;;;;;29.22;28.19;101486.25;5070087;28;20569;-53
2021/06/01 11:38:31;;;;;;;9.27;5.30;;;;;;;29.55;28.54;101482.81;5073269;28;20478;-56
2021/06/01 11:41:18;;;;;;;9.27;5.30;;;;;;;29.18;28.04;101481.97;5072422;28;20880;-48
2021/06/01 11:43:46;;;;;;;8.67;5.17;;;;;;;29.50;28.22;101482.94;5070684;28;20462;-54
2021/06/01 11:46:22;;;;;;;12.67;5.50;;;;;;;29.30;28.16;101474.56;5071742;28;20478;-57
2021/06/01 11:51:36;;;;;;;19.73;5.80;;;;;;;29.50;27.41;101467.00;5065857;28;20488;-49
2021/06/01 11:54:05;;;;;;;8.80;4.80;;;;;;;29.19;28.09;101462.47;5065408;28;20467;-59
2021/06/01 11:56:54;;;;;;;12.90;6.47;;;;;;;29.29;28.03;101462.19;5063552;28;20478;-59